sensor_id;sensor_type;location;lat;lon;timestamp;P1;durP1;ratioP1;P2;durP2;ratioP2
62693;SDS011;48759;52.544;13.418;2023-03-14T00:01:53;5.83;;;2.10;;
62693;SDS011;48759;52.544;13.418;2023-03-14T00:04:20;2.00;;;1.80;;
62693;SDS011;48759;52.544;13.418;2023-03-14T00:06:48;2.23;;;2.00;;
62693;SDS011;48759;52.544;13.418;2023-03-14T00:09:15;2.90;;;2.00;;
62693;SDS011;48759;52.544;13.418;2023-03-14T00:11:42;3.23;;;2.03;;
62693;SDS011;48759;52.544;13.418;2023-03-14T00:14:09;2.73;;;1.93;;
62693;SDS011;48759;52.544;13.418;2023-03-14T00:16:36;4.80;;;1.97;;
62693;SDS011;48759;52.544;13.418;2023-03-14T00:19:03;1.53;;;1.43;;
62693;SDS011;48759;52.544;13.418;2023-03-14T00:21:30;1.70;;;1.60;;
62693;SDS011;48759;52.544;13.418;2023-03-14T00:23:58;1.80;;;1.70;;
62693;SDS011;48759;52.544;13.418;2023-03-14T00:26:24;2.30;;;2.10;;
62693;SDS011;48759;52.544;13.418;2023-03-14T00:28:52;2.33;;;1.60;;
62693;SDS011;48759;52.544;13.418;2023-03-14T00:31:19;3.63;;;1.77;;
62693;SDS011;48759;52.544;13.418;2023-03-14T00:33:46;2.93;;;2.13;;
62693;SDS011;48759;52.544;13.418;2023-03-14T00:36:13;3.40;;;2.00;;
62693;SDS011;48759;52.544;13.418;2023-03-14T00:38:42;2.10;;;1.90;;
62693;SDS011;48759;52.544;13.418;2023-03-14T00:41:12;3.10;;;2.03;;
62693;SDS011;48759;52.544;13.418;2023-03-14T00:43:40;1.80;;;1.70;;
62693;SDS011;48759;52.544;13.418;2023-03-14T00:46:07;2.37;;;1.90;;
62693;SDS011;48759;52.544;13.418;2023-03-14T00:48:34;2.70;;;2.10;;
62693;SDS011;48759;52.544;13.418;2023-03-14T00:51:01;6.93;;;2.40;;
62693;SDS011;48759;52.544;13.418;2023-03-14T00:53:28;2.23;;;1.80;;
62693;SDS011;48759;52.544;13.418;2023-03-14T00:55:55;2.23;;;1.87;;
62693;SDS011;48759;52.544;13.418;2023-03-14T00:58:23;3.20;;;1.70;;
62693;SDS011;48759;52.544;13.418;2023-03-14T01:00:50;3.13;;;2.30;;
62693;SDS011;48759;52.544;13.418;2023-03-14T01:03:17;2.43;;;1.90;;
62693;SDS011;48759;52.544;13.418;2023-03-14T01:05:43;2.20;;;1.67;;
62693;SDS011;48759;52.544;13.418;2023-03-14T01:08:10;3.23;;;1.80;;
62693;SDS011;48759;52.544;13.418;2023-03-14T01:10:37;3.10;;;2.23;;
62693;SDS011;48759;52.544;13.418;2023-03-14T01:13:05;2.23;;;2.03;;
62693;SDS011;48759;52.544;13.418;2023-03-14T01:15:33;1.60;;;1.50;;
62693;SDS011;48759;52.544;13.418;2023-03-14T01:18:01;2.80;;;1.90;;
62693;SDS011;48759;52.544;13.418;2023-03-14T01:20:28;2.50;;;1.93;;
62693;SDS011;48759;52.544;13.418;2023-03-14T01:22:55;2.70;;;1.70;;
62693;SDS011;48759;52.544;13.418;2023-03-14T01:25:22;3.33;;;1.90;;
62693;SDS011;48759;52.544;13.418;2023-03-14T01:27:48;2.10;;;1.70;;
62693;SDS011;48759;52.544;13.418;2023-03-14T01:30:15;2.10;;;1.53;;
62693;SDS011;48759;52.544;13.418;2023-03-14T01:32:44;1.90;;;1.80;;
62693;SDS011;48759;52.544;13.418;2023-03-14T01:35:10;2.60;;;2.20;;
62693;SDS011;48759;52.544;13.418;2023-03-14T01:37:37;2.57;;;2.40;;
62693;SDS011;48759;52.544;13.418;2023-03-14T01:40:04;1.80;;;1.60;;
62693;SDS011;48759;52.544;13.418;2023-03-14T01:42:31;1.93;;;1.73;;
62693;SDS011;48759;52.544;13.418;2023-03-14T01:44:59;3.67;;;1.70;;
62693;SDS011;48759;52.544;13.418;2023-03-14T01:47:27;1.90;;;1.80;;
62693;SDS011;48759;52.544;13.418;2023-03-14T01:49:58;2.27;;;1.80;;
62693;SDS011;48759;52.544;13.418;2023-03-14T01:52:28;2.60;;;1.93;;
62693;SDS011;48759;52.544;13.418;2023-03-14T01:55:01;2.17;;;1.80;;
62693;SDS011;48759;52.544;13.418;2023-03-14T01:57:32;6.63;;;1.60;;
62693;SDS011;48759;52.544;13.418;2023-03-14T02:00:03;2.17;;;1.50;;
62693;SDS011;48759;52.544;13.418;2023-03-14T02:02:36;2.40;;;1.83;;
62693;SDS011;48759;52.544;13.418;2023-03-14T02:05:07;1.50;;;1.40;;
62693;SDS011;48759;52.544;13.418;2023-03-14T02:07:36;1.73;;;1.63;;
62693;SDS011;48759;52.544;13.418;2023-03-14T02:10:07;4.10;;;1.50;;
62693;SDS011;48759;52.544;13.418;2023-03-14T02:12:35;2.10;;;1.40;;
62693;SDS011;48759;52.544;13.418;2023-03-14T02:15:03;1.70;;;1.60;;
62693;SDS011;48759;52.544;13.418;2023-03-14T02:17:30;1.70;;;1.60;;
62693;SDS011;48759;52.544;13.418;2023-03-14T02:20:03;1.40;;;1.30;;
62693;SDS011;48759;52.544;13.418;2023-03-14T02:22:40;3.13;;;1.77;;
62693;SDS011;48759;52.544;13.418;2023-03-14T02:25:11;3.10;;;1.80;;
62693;SDS011;48759;52.544;13.418;2023-03-14T02:27:44;1.67;;;1.57;;
62693;SDS011;48759;52.544;13.418;2023-03-14T02:30:13;2.10;;;1.50;;
62693;SDS011;48759;52.544;13.418;2023-03-14T02:32:43;3.53;;;1.93;;
62693;SDS011;48759;52.544;13.418;2023-03-14T02:35:14;4.53;;;1.70;;
62693;SDS011;48759;52.544;13.418;2023-03-14T02:37:46;1.60;;;1.50;;
62693;SDS011;48759;52.544;13.418;2023-03-14T02:40:17;1.90;;;1.50;;
62693;SDS011;48759;52.544;13.418;2023-03-14T02:42:45;3.10;;;1.47;;
62693;SDS011;48759;52.544;13.418;2023-03-14T02:48:04;1.67;;;1.57;;
62693;SDS011;48759;52.544;13.418;2023-03-14T02:50:35;1.57;;;1.47;;
62693;SDS011;48759;52.544;13.418;2023-03-14T02:53:02;1.40;;;1.30;;
62693;SDS011;48759;52.544;13.418;2023-03-14T02:55:29;1.40;;;1.30;;
62693;SDS011;48759;52.544;13.418;2023-03-14T02:57:57;1.93;;;1.77;;
62693;SDS011;48759;52.544;13.418;2023-03-14T03:00:23;1.63;;;1.40;;
62693;SDS011;48759;52.544;13.418;2023-03-14T03:02:51;1.90;;;1.80;;
62693;SDS011;48759;52.544;13.418;2023-03-14T03:05:18;1.87;;;1.77;;
62693;SDS011;48759;52.544;13.418;2023-03-14T03:07:44;1.73;;;1.47;;
62693;SDS011;48759;52.544;13.418;2023-03-14T03:10:11;1.47;;;1.37;;
62693;SDS011;48759;52.544;13.418;2023-03-14T03:12:38;2.10;;;1.50;;
62693;SDS011;48759;52.544;13.418;2023-03-14T03:15:07;1.77;;;1.37;;
62693;SDS011;48759;52.544;13.418;2023-03-14T03:17:34;3.00;;;1.50;;
62693;SDS011;48759;52.544;13.418;2023-03-14T03:20:01;2.97;;;1.57;;
62693;SDS011;48759;52.544;13.418;2023-03-14T03:22:30;1.40;;;1.30;;
62693;SDS011;48759;52.544;13.418;2023-03-14T03:24:57;1.50;;;1.40;;
62693;SDS011;48759;52.544;13.418;2023-03-14T03:27:24;1.50;;;1.40;;
62693;SDS011;48759;52.544;13.418;2023-03-14T03:29:50;2.00;;;1.40;;
62693;SDS011;48759;52.544;13.418;2023-03-14T03:32:19;4.00;;;1.70;;
62693;SDS011;48759;52.544;13.418;2023-03-14T03:34:45;2.40;;;1.27;;
62693;SDS011;48759;52.544;13.418;2023-03-14T03:37:12;2.07;;;1.40;;
62693;SDS011;48759;52.544;13.418;2023-03-14T03:39:39;2.10;;;1.67;;
62693;SDS011;48759;52.544;13.418;2023-03-14T03:42:06;2.03;;;1.80;;
62693;SDS011;48759;52.544;13.418;2023-03-14T03:44:32;2.00;;;1.90;;
62693;SDS011;48759;52.544;13.418;2023-03-14T03:46:59;1.70;;;1.53;;
62693;SDS011;48759;52.544;13.418;2023-03-14T03:49:29;1.60;;;1.50;;
62693;SDS011;48759;52.544;13.418;2023-03-14T03:51:56;1.40;;;1.30;;
62693;SDS011;48759;52.544;13.418;2023-03-14T03:54:23;2.03;;;1.83;;
62693;SDS011;48759;52.544;13.418;2023-03-14T03:56:50;1.73;;;1.63;;
62693;SDS011;48759;52.544;13.418;2023-03-14T03:59:17;1.60;;;1.50;;
62693;SDS011;48759;52.544;13.418;2023-03-14T04:01:44;1.60;;;1.50;;
62693;SDS011;48759;52.544;13.418;2023-03-14T04:04:11;2.40;;;1.43;;
62693;SDS011;48759;52.544;13.418;2023-03-14T04:06:39;1.50;;;1.40;;
62693;SDS011;48759;52.544;13.418;2023-03-14T04:09:06;1.60;;;1.50;;
62693;SDS011;48759;52.544;13.418;2023-03-14T04:11:33;1.87;;;1.70;;
62693;SDS011;48759;52.544;13.418;2023-03-14T04:14:00;2.40;;;1.27;;
62693;SDS011;48759;52.544;13.418;2023-03-14T04:16:27;2.67;;;1.57;;
62693;SDS011;48759;52.544;13.418;2023-03-14T04:18:54;1.80;;;1.70;;
62693;SDS011;48759;52.544;13.418;2023-03-14T04:21:21;2.63;;;1.87;;
62693;SDS011;48759;52.544;13.418;2023-03-14T04:23:49;3.23;;;1.30;;
62693;SDS011;48759;52.544;13.418;2023-03-14T04:26:15;1.60;;;1.50;;
62693;SDS011;48759;52.544;13.418;2023-03-14T04:28:42;1.50;;;1.40;;
62693;SDS011;48759;52.544;13.418;2023-03-14T04:31:10;1.70;;;1.47;;
62693;SDS011;48759;52.544;13.418;2023-03-14T04:33:38;1.70;;;1.40;;
62693;SDS011;48759;52.544;13.418;2023-03-14T04:36:06;1.60;;;1.50;;
62693;SDS011;48759;52.544;13.418;2023-03-14T04:38:33;1.50;;;1.40;;
62693;SDS011;48759;52.544;13.418;2023-03-14T04:41:02;1.50;;;1.40;;
62693;SDS011;48759;52.544;13.418;2023-03-14T04:43:29;1.40;;;1.30;;
62693;SDS011;48759;52.544;13.418;2023-03-14T04:45:57;2.27;;;1.43;;
62693;SDS011;48759;52.544;13.418;2023-03-14T04:48:24;3.83;;;1.70;;
62693;SDS011;48759;52.544;13.418;2023-03-14T04:50:52;2.60;;;1.77;;
62693;SDS011;48759;52.544;13.418;2023-03-14T04:53:19;2.63;;;1.43;;
62693;SDS011;48759;52.544;13.418;2023-03-14T04:55:47;2.87;;;1.33;;
62693;SDS011;48759;52.544;13.418;2023-03-14T04:58:16;1.40;;;1.30;;
62693;SDS011;48759;52.544;13.418;2023-03-14T05:00:43;1.67;;;1.50;;
62693;SDS011;48759;52.544;13.418;2023-03-14T05:03:10;1.50;;;1.40;;
62693;SDS011;48759;52.544;13.418;2023-03-14T05:05:36;2.03;;;1.60;;
62693;SDS011;48759;52.544;13.418;2023-03-14T05:08:03;2.03;;;1.60;;
62693;SDS011;48759;52.544;13.418;2023-03-14T05:10:30;4.23;;;2.50;;
62693;SDS011;48759;52.544;13.418;2023-03-14T05:12:57;2.43;;;2.20;;
62693;SDS011;48759;52.544;13.418;2023-03-14T05:15:25;1.93;;;1.50;;
62693;SDS011;48759;52.544;13.418;2023-03-14T05:17:52;1.93;;;1.50;;
62693;SDS011;48759;52.544;13.418;2023-03-14T05:20:19;2.40;;;2.10;;
62693;SDS011;48759;52.544;13.418;2023-03-14T05:22:46;1.67;;;1.40;;
62693;SDS011;48759;52.544;13.418;2023-03-14T05:25:13;2.47;;;2.13;;
62693;SDS011;48759;52.544;13.418;2023-03-14T05:27:39;2.90;;;1.60;;
62693;SDS011;48759;52.544;13.418;2023-03-14T05:30:07;4.77;;;2.13;;
62693;SDS011;48759;52.544;13.418;2023-03-14T05:32:36;4.70;;;1.93;;
62693;SDS011;48759;52.544;13.418;2023-03-14T05:35:03;1.63;;;1.53;;
62693;SDS011;48759;52.544;13.418;2023-03-14T05:37:30;3.90;;;1.90;;
62693;SDS011;48759;52.544;13.418;2023-03-14T05:39:56;1.73;;;1.57;;
62693;SDS011;48759;52.544;13.418;2023-03-14T05:42:23;2.57;;;2.00;;
62693;SDS011;48759;52.544;13.418;2023-03-14T05:44:49;2.20;;;1.63;;
62693;SDS011;48759;52.544;13.418;2023-03-14T05:47:16;3.00;;;1.73;;
62693;SDS011;48759;52.544;13.418;2023-03-14T05:49:44;2.33;;;1.63;;
62693;SDS011;48759;52.544;13.418;2023-03-14T05:52:11;1.80;;;1.70;;
62693;SDS011;48759;52.544;13.418;2023-03-14T05:54:38;1.73;;;1.63;;
62693;SDS011;48759;52.544;13.418;2023-03-14T05:57:05;8.10;;;1.70;;
62693;SDS011;48759;52.544;13.418;2023-03-14T05:59:32;1.40;;;1.27;;
62693;SDS011;48759;52.544;13.418;2023-03-14T06:01:59;1.90;;;1.77;;
62693;SDS011;48759;52.544;13.418;2023-03-14T06:04:25;6.30;;;1.70;;
62693;SDS011;48759;52.544;13.418;2023-03-14T06:06:53;3.43;;;2.00;;
62693;SDS011;48759;52.544;13.418;2023-03-14T06:09:20;5.13;;;1.70;;
62693;SDS011;48759;52.544;13.418;2023-03-14T06:11:48;2.57;;;2.07;;
62693;SDS011;48759;52.544;13.418;2023-03-14T06:14:15;1.77;;;1.60;;
62693;SDS011;48759;52.544;13.418;2023-03-14T06:16:41;2.27;;;1.50;;
62693;SDS011;48759;52.544;13.418;2023-03-14T06:19:08;2.20;;;1.60;;
62693;SDS011;48759;52.544;13.418;2023-03-14T06:21:35;3.03;;;1.83;;
62693;SDS011;48759;52.544;13.418;2023-03-14T06:24:03;2.07;;;1.57;;
62693;SDS011;48759;52.544;13.418;2023-03-14T06:26:30;1.60;;;1.50;;
62693;SDS011;48759;52.544;13.418;2023-03-14T06:28:57;3.10;;;1.60;;
62693;SDS011;48759;52.544;13.418;2023-03-14T06:31:28;2.23;;;1.80;;
62693;SDS011;48759;52.544;13.418;2023-03-14T06:33:54;6.30;;;2.37;;
62693;SDS011;48759;52.544;13.418;2023-03-14T06:36:21;3.23;;;1.50;;
62693;SDS011;48759;52.544;13.418;2023-03-14T06:38:48;3.23;;;1.80;;
62693;SDS011;48759;52.544;13.418;2023-03-14T06:41:16;2.40;;;1.50;;
62693;SDS011;48759;52.544;13.418;2023-03-14T06:43:43;1.97;;;1.40;;
62693;SDS011;48759;52.544;13.418;2023-03-14T06:46:10;4.03;;;1.70;;
62693;SDS011;48759;52.544;13.418;2023-03-14T06:48:36;3.70;;;1.60;;
62693;SDS011;48759;52.544;13.418;2023-03-14T06:51:04;5.70;;;1.77;;
62693;SDS011;48759;52.544;13.418;2023-03-14T06:53:31;3.97;;;2.40;;
62693;SDS011;48759;52.544;13.418;2023-03-14T06:55:58;2.53;;;1.83;;
62693;SDS011;48759;52.544;13.418;2023-03-14T06:58:26;2.43;;;1.80;;
62693;SDS011;48759;52.544;13.418;2023-03-14T07:00:53;1.80;;;1.70;;
62693;SDS011;48759;52.544;13.418;2023-03-14T07:03:21;2.17;;;1.70;;
62693;SDS011;48759;52.544;13.418;2023-03-14T07:05:48;8.77;;;2.00;;
62693;SDS011;48759;52.544;13.418;2023-03-14T07:08:15;7.37;;;1.77;;
62693;SDS011;48759;52.544;13.418;2023-03-14T07:10:43;7.73;;;2.00;;
62693;SDS011;48759;52.544;13.418;2023-03-14T07:13:10;3.10;;;1.50;;
62693;SDS011;48759;52.544;13.418;2023-03-14T07:15:38;2.97;;;1.60;;
62693;SDS011;48759;52.544;13.418;2023-03-14T07:18:04;4.00;;;1.73;;
62693;SDS011;48759;52.544;13.418;2023-03-14T07:20:31;6.13;;;2.00;;
62693;SDS011;48759;52.544;13.418;2023-03-14T07:22:58;2.40;;;1.63;;
62693;SDS011;48759;52.544;13.418;2023-03-14T07:25:27;4.93;;;2.00;;
62693;SDS011;48759;52.544;13.418;2023-03-14T07:27:54;4.43;;;2.60;;
62693;SDS011;48759;52.544;13.418;2023-03-14T07:30:21;5.87;;;2.53;;
62693;SDS011;48759;52.544;13.418;2023-03-14T07:32:49;7.13;;;2.70;;
62693;SDS011;48759;52.544;13.418;2023-03-14T07:35:16;3.23;;;2.43;;
62693;SDS011;48759;52.544;13.418;2023-03-14T07:37:42;3.27;;;2.20;;
62693;SDS011;48759;52.544;13.418;2023-03-14T07:40:09;3.70;;;2.40;;
62693;SDS011;48759;52.544;13.418;2023-03-14T07:42:39;8.30;;;2.57;;
62693;SDS011;48759;52.544;13.418;2023-03-14T07:45:07;6.30;;;1.90;;
62693;SDS011;48759;52.544;13.418;2023-03-14T07:47:34;5.23;;;1.80;;
62693;SDS011;48759;52.544;13.418;2023-03-14T07:50:02;2.00;;;1.80;;
62693;SDS011;48759;52.544;13.418;2023-03-14T07:52:29;3.93;;;2.00;;
62693;SDS011;48759;52.544;13.418;2023-03-14T07:54:56;7.03;;;2.20;;
62693;SDS011;48759;52.544;13.418;2023-03-14T07:57:23;7.07;;;2.07;;
62693;SDS011;48759;52.544;13.418;2023-03-14T07:59:50;3.43;;;1.90;;
62693;SDS011;48759;52.544;13.418;2023-03-14T08:02:16;4.20;;;1.97;;
62693;SDS011;48759;52.544;13.418;2023-03-14T08:04:45;2.73;;;2.10;;
62693;SDS011;48759;52.544;13.418;2023-03-14T08:07:13;9.40;;;2.83;;
62693;SDS011;48759;52.544;13.418;2023-03-14T08:09:40;4.47;;;2.30;;
62693;SDS011;48759;52.544;13.418;2023-03-14T08:12:07;5.57;;;2.20;;
62693;SDS011;48759;52.544;13.418;2023-03-14T08:14:34;6.87;;;2.30;;
62693;SDS011;48759;52.544;13.418;2023-03-14T08:17:01;4.33;;;2.30;;
62693;SDS011;48759;52.544;13.418;2023-03-14T08:19:27;3.37;;;1.83;;
62693;SDS011;48759;52.544;13.418;2023-03-14T08:21:54;7.43;;;2.57;;
62693;SDS011;48759;52.544;13.418;2023-03-14T08:24:22;3.93;;;2.00;;
62693;SDS011;48759;52.544;13.418;2023-03-14T08:26:49;9.90;;;2.37;;
62693;SDS011;48759;52.544;13.418;2023-03-14T08:29:16;5.17;;;1.97;;
62693;SDS011;48759;52.544;13.418;2023-03-14T08:31:42;8.33;;;2.23;;
62693;SDS011;48759;52.544;13.418;2023-03-14T08:34:10;5.83;;;2.77;;
62693;SDS011;48759;52.544;13.418;2023-03-14T08:36:36;2.17;;;1.90;;
62693;SDS011;48759;52.544;13.418;2023-03-14T08:39:03;5.73;;;2.07;;
62693;SDS011;48759;52.544;13.418;2023-03-14T08:41:33;9.93;;;2.60;;
62693;SDS011;48759;52.544;13.418;2023-03-14T08:44:05;4.40;;;1.90;;
62693;SDS011;48759;52.544;13.418;2023-03-14T08:46:31;3.47;;;2.53;;
62693;SDS011;48759;52.544;13.418;2023-03-14T08:48:58;5.37;;;2.33;;
62693;SDS011;48759;52.544;13.418;2023-03-14T08:51:25;5.57;;;2.20;;
62693;SDS011;48759;52.544;13.418;2023-03-14T08:53:52;6.73;;;2.33;;
62693;SDS011;48759;52.544;13.418;2023-03-14T08:56:18;4.20;;;2.20;;
62693;SDS011;48759;52.544;13.418;2023-03-14T08:58:47;4.50;;;2.00;;
62693;SDS011;48759;52.544;13.418;2023-03-14T09:01:13;7.97;;;2.33;;
62693;SDS011;48759;52.544;13.418;2023-03-14T09:03:40;5.87;;;2.10;;
62693;SDS011;48759;52.544;13.418;2023-03-14T09:06:10;5.40;;;2.47;;
62693;SDS011;48759;52.544;13.418;2023-03-14T09:08:37;2.97;;;2.33;;
62693;SDS011;48759;52.544;13.418;2023-03-14T09:11:06;4.93;;;2.33;;
62693;SDS011;48759;52.544;13.418;2023-03-14T09:13:34;4.27;;;1.70;;
62693;SDS011;48759;52.544;13.418;2023-03-14T09:16:02;6.87;;;2.03;;
62693;SDS011;48759;52.544;13.418;2023-03-14T09:18:29;5.80;;;2.00;;
62693;SDS011;48759;52.544;13.418;2023-03-14T09:20:56;7.30;;;1.77;;
62693;SDS011;48759;52.544;13.418;2023-03-14T09:23:23;2.60;;;1.80;;
62693;SDS011;48759;52.544;13.418;2023-03-14T09:25:53;7.03;;;2.10;;
62693;SDS011;48759;52.544;13.418;2023-03-14T09:28:21;10.23;;;1.70;;
62693;SDS011;48759;52.544;13.418;2023-03-14T09:30:48;2.00;;;1.70;;
62693;SDS011;48759;52.544;13.418;2023-03-14T09:33:16;3.80;;;1.70;;
62693;SDS011;48759;52.544;13.418;2023-03-14T09:35:42;4.70;;;3.43;;
62693;SDS011;48759;52.544;13.418;2023-03-14T09:38:10;9.00;;;5.00;;
62693;SDS011;48759;52.544;13.418;2023-03-14T09:40:37;9.27;;;5.30;;
62693;SDS011;48759;52.544;13.418;2023-03-14T09:43:04;7.33;;;4.23;;
62693;SDS011;48759;52.544;13.418;2023-03-14T09:45:32;14.93;;;9.90;;
62693;SDS011;48759;52.544;13.418;2023-03-14T09:48:01;14.07;;;7.57;;
62693;SDS011;48759;52.544;13.418;2023-03-14T09:50:33;9.03;;;6.63;;
62693;SDS011;48759;52.544;13.418;2023-03-14T09:53:05;6.07;;;4.40;;
62693;SDS011;48759;52.544;13.418;2023-03-14T09:55:35;17.87;;;2.87;;
62693;SDS011;48759;52.544;13.418;2023-03-14T09:58:03;9.63;;;2.40;;
62693;SDS011;48759;52.544;13.418;2023-03-14T10:00:37;5.17;;;3.97;;
62693;SDS011;48759;52.544;13.418;2023-03-14T10:03:14;7.83;;;2.30;;
62693;SDS011;48759;52.544;13.418;2023-03-14T10:05:49;7.50;;;2.30;;
62693;SDS011;48759;52.544;13.418;2023-03-14T10:08:16;4.93;;;2.20;;
62693;SDS011;48759;52.544;13.418;2023-03-14T10:10:43;3.30;;;2.10;;
62693;SDS011;48759;52.544;13.418;2023-03-14T10:13:13;4.23;;;2.83;;
62693;SDS011;48759;52.544;13.418;2023-03-14T10:15:47;2.63;;;1.90;;
62693;SDS011;48759;52.544;13.418;2023-03-14T10:18:16;2.23;;;2.03;;
62693;SDS011;48759;52.544;13.418;2023-03-14T10:20:44;4.17;;;1.90;;
62693;SDS011;48759;52.544;13.418;2023-03-14T10:23:22;4.10;;;2.07;;
62693;SDS011;48759;52.544;13.418;2023-03-14T10:26:05;3.80;;;1.83;;
62693;SDS011;48759;52.544;13.418;2023-03-14T10:28:36;5.60;;;2.07;;
62693;SDS011;48759;52.544;13.418;2023-03-14T10:31:05;4.17;;;2.00;;
62693;SDS011;48759;52.544;13.418;2023-03-14T10:33:33;7.67;;;1.90;;
62693;SDS011;48759;52.544;13.418;2023-03-14T10:36:02;5.50;;;1.90;;
62693;SDS011;48759;52.544;13.418;2023-03-14T10:38:33;3.47;;;1.83;;
62693;SDS011;48759;52.544;13.418;2023-03-14T10:41:01;2.50;;;1.80;;
62693;SDS011;48759;52.544;13.418;2023-03-14T10:43:40;5.93;;;2.13;;
62693;SDS011;48759;52.544;13.418;2023-03-14T10:46:08;4.60;;;2.43;;
62693;SDS011;48759;52.544;13.418;2023-03-14T10:48:38;5.73;;;2.23;;
62693;SDS011;48759;52.544;13.418;2023-03-14T10:51:07;3.70;;;3.00;;
62693;SDS011;48759;52.544;13.418;2023-03-14T10:53:42;4.10;;;2.90;;
62693;SDS011;48759;52.544;13.418;2023-03-14T10:56:13;3.20;;;2.27;;
62693;SDS011;48759;52.544;13.418;2023-03-14T10:58:42;9.00;;;3.20;;
62693;SDS011;48759;52.544;13.418;2023-03-14T11:01:16;7.03;;;3.90;;
62693;SDS011;48759;52.544;13.418;2023-03-14T11:03:52;7.50;;;2.97;;
62693;SDS011;48759;52.544;13.418;2023-03-14T11:06:23;5.73;;;3.80;;
62693;SDS011;48759;52.544;13.418;2023-03-14T11:08:57;4.70;;;2.80;;
62693;SDS011;48759;52.544;13.418;2023-03-14T11:11:31;3.93;;;2.27;;
62693;SDS011;48759;52.544;13.418;2023-03-14T11:14:01;4.30;;;2.10;;
62693;SDS011;48759;52.544;13.418;2023-03-14T11:16:43;3.20;;;1.83;;
62693;SDS011;48759;52.544;13.418;2023-03-14T11:19:26;5.13;;;1.90;;
62693;SDS011;48759;52.544;13.418;2023-03-14T11:22:04;4.40;;;2.10;;
62693;SDS011;48759;52.544;13.418;2023-03-14T11:24:44;4.93;;;2.10;;
62693;SDS011;48759;52.544;13.418;2023-03-14T11:27:28;4.40;;;2.90;;
62693;SDS011;48759;52.544;13.418;2023-03-14T11:30:02;7.27;;;3.33;;
62693;SDS011;48759;52.544;13.418;2023-03-14T11:32:41;5.33;;;2.37;;
62693;SDS011;48759;52.544;13.418;2023-03-14T11:35:15;3.00;;;2.20;;
62693;SDS011;48759;52.544;13.418;2023-03-14T11:37:46;10.30;;;2.10;;
62693;SDS011;48759;52.544;13.418;2023-03-14T11:40:19;6.70;;;2.00;;
62693;SDS011;48759;52.544;13.418;2023-03-14T11:42:51;3.93;;;2.10;;
62693;SDS011;48759;52.544;13.418;2023-03-14T11:45:26;4.10;;;1.70;;
62693;SDS011;48759;52.544;13.418;2023-03-14T11:48:05;2.37;;;1.40;;
62693;SDS011;48759;52.544;13.418;2023-03-14T11:50:49;6.23;;;1.50;;
62693;SDS011;48759;52.544;13.418;2023-03-14T11:53:19;3.13;;;1.90;;
62693;SDS011;48759;52.544;13.418;2023-03-14T11:55:51;3.50;;;2.10;;
62693;SDS011;48759;52.544;13.418;2023-03-14T11:58:19;2.60;;;1.50;;
62693;SDS011;48759;52.544;13.418;2023-03-14T12:00:50;6.53;;;2.13;;
62693;SDS011;48759;52.544;13.418;2023-03-14T12:03:21;2.20;;;1.73;;
62693;SDS011;48759;52.544;13.418;2023-03-14T12:05:57;2.03;;;1.50;;
62693;SDS011;48759;52.544;13.418;2023-03-14T12:11:25;4.77;;;2.40;;
62693;SDS011;48759;52.544;13.418;2023-03-14T12:14:02;2.50;;;1.97;;
62693;SDS011;48759;52.544;13.418;2023-03-14T12:16:33;4.03;;;2.20;;
62693;SDS011;48759;52.544;13.418;2023-03-14T12:19:13;2.43;;;1.67;;
62693;SDS011;48759;52.544;13.418;2023-03-14T12:21:55;4.17;;;2.33;;
62693;SDS011;48759;52.544;13.418;2023-03-14T12:24:25;1.70;;;1.60;;
62693;SDS011;48759;52.544;13.418;2023-03-14T12:26:57;3.27;;;1.63;;
62693;SDS011;48759;52.544;13.418;2023-03-14T12:29:24;2.83;;;2.53;;
62693;SDS011;48759;52.544;13.418;2023-03-14T12:32:06;2.67;;;1.97;;
62693;SDS011;48759;52.544;13.418;2023-03-14T12:34:34;3.93;;;2.40;;
62693;SDS011;48759;52.544;13.418;2023-03-14T12:37:10;2.27;;;1.90;;
62693;SDS011;48759;52.544;13.418;2023-03-14T12:39:43;3.93;;;1.80;;
62693;SDS011;48759;52.544;13.418;2023-03-14T12:42:21;3.73;;;1.90;;
62693;SDS011;48759;52.544;13.418;2023-03-14T12:47:52;7.20;;;2.00;;
62693;SDS011;48759;52.544;13.418;2023-03-14T12:50:24;5.53;;;2.20;;
62693;SDS011;48759;52.544;13.418;2023-03-14T12:52:59;10.60;;;2.70;;
62693;SDS011;48759;52.544;13.418;2023-03-14T12:56:05;4.03;;;1.83;;
62693;SDS011;48759;52.544;13.418;2023-03-14T12:59:04;3.80;;;2.13;;
62693;SDS011;48759;52.544;13.418;2023-03-14T13:01:45;11.13;;;2.57;;
62693;SDS011;48759;52.544;13.418;2023-03-14T13:04:14;3.80;;;2.33;;
62693;SDS011;48759;52.544;13.418;2023-03-14T13:06:51;3.07;;;1.87;;
62693;SDS011;48759;52.544;13.418;2023-03-14T13:12:26;5.77;;;2.00;;
62693;SDS011;48759;52.544;13.418;2023-03-14T13:14:59;3.80;;;1.70;;
62693;SDS011;48759;52.544;13.418;2023-03-14T13:17:29;2.57;;;1.77;;
62693;SDS011;48759;52.544;13.418;2023-03-14T13:20:00;1.80;;;1.57;;
62693;SDS011;48759;52.544;13.418;2023-03-14T13:22:32;1.70;;;1.60;;
62693;SDS011;48759;52.544;13.418;2023-03-14T13:25:02;2.03;;;1.67;;
62693;SDS011;48759;52.544;13.418;2023-03-14T13:27:31;3.70;;;2.33;;
62693;SDS011;48759;52.544;13.418;2023-03-14T13:30:11;3.83;;;2.60;;
62693;SDS011;48759;52.544;13.418;2023-03-14T13:32:42;7.17;;;2.30;;
62693;SDS011;48759;52.544;13.418;2023-03-14T13:35:20;4.93;;;1.90;;
62693;SDS011;48759;52.544;13.418;2023-03-14T13:37:53;4.17;;;2.20;;
62693;SDS011;48759;52.544;13.418;2023-03-14T13:40:26;4.43;;;2.07;;
62693;SDS011;48759;52.544;13.418;2023-03-14T13:43:01;3.47;;;1.80;;
62693;SDS011;48759;52.544;13.418;2023-03-14T13:45:32;1.63;;;1.47;;
62693;SDS011;48759;52.544;13.418;2023-03-14T13:48:09;1.90;;;1.70;;
62693;SDS011;48759;52.544;13.418;2023-03-14T13:50:43;2.63;;;2.43;;
62693;SDS011;48759;52.544;13.418;2023-03-14T13:53:12;3.23;;;2.03;;
62693;SDS011;48759;52.544;13.418;2023-03-14T13:55:39;8.73;;;2.30;;
62693;SDS011;48759;52.544;13.418;2023-03-14T13:58:10;3.43;;;2.30;;
62693;SDS011;48759;52.544;13.418;2023-03-14T14:00:54;2.77;;;2.10;;
62693;SDS011;48759;52.544;13.418;2023-03-14T14:03:26;2.90;;;1.90;;
62693;SDS011;48759;52.544;13.418;2023-03-14T14:05:54;2.27;;;1.60;;
62693;SDS011;48759;52.544;13.418;2023-03-14T14:08:23;2.43;;;1.73;;
62693;SDS011;48759;52.544;13.418;2023-03-14T14:10:50;1.63;;;1.30;;
62693;SDS011;48759;52.544;13.418;2023-03-14T14:13:23;2.30;;;1.50;;
62693;SDS011;48759;52.544;13.418;2023-03-14T14:15:51;1.37;;;1.10;;
62693;SDS011;48759;52.544;13.418;2023-03-14T14:18:22;3.50;;;1.20;;
62693;SDS011;48759;52.544;13.418;2023-03-14T14:20:53;1.57;;;1.20;;
62693;SDS011;48759;52.544;13.418;2023-03-14T14:23:21;1.87;;;1.43;;
62693;SDS011;48759;52.544;13.418;2023-03-14T14:25:51;1.73;;;1.47;;
62693;SDS011;48759;52.544;13.418;2023-03-14T14:28:22;5.43;;;1.60;;
62693;SDS011;48759;52.544;13.418;2023-03-14T14:31:01;2.90;;;1.40;;
62693;SDS011;48759;52.544;13.418;2023-03-14T14:33:39;6.50;;;2.10;;
62693;SDS011;48759;52.544;13.418;2023-03-14T14:36:14;4.60;;;3.17;;
62693;SDS011;48759;52.544;13.418;2023-03-14T14:38:51;2.97;;;2.23;;
62693;SDS011;48759;52.544;13.418;2023-03-14T14:41:19;3.90;;;2.93;;
62693;SDS011;48759;52.544;13.418;2023-03-14T14:43:47;3.93;;;2.90;;
62693;SDS011;48759;52.544;13.418;2023-03-14T14:46:16;5.90;;;3.83;;
62693;SDS011;48759;52.544;13.418;2023-03-14T14:48:47;4.23;;;2.40;;
62693;SDS011;48759;52.544;13.418;2023-03-14T14:51:23;2.40;;;2.20;;
62693;SDS011;48759;52.544;13.418;2023-03-14T14:54:00;1.70;;;1.60;;
62693;SDS011;48759;52.544;13.418;2023-03-14T14:56:29;2.13;;;1.37;;
62693;SDS011;48759;52.544;13.418;2023-03-14T14:58:57;2.70;;;1.40;;